createdAt,value
2019-03-31T00:01:12.770Z,34.63
2019-03-31T00:03:43.866Z,34.45
2019-03-31T00:06:14.696Z,34.05
2019-03-31T00:08:45.384Z,34.75
2019-03-31T00:11:16.219Z,34.80
2019-03-31T00:13:46.989Z,34.60
2019-03-31T00:16:17.957Z,33.67
2019-03-31T00:18:48.850Z,32.17
2019-03-31T00:21:19.563Z,33.42
2019-03-31T00:23:50.189Z,33.75
2019-03-31T00:26:21.301Z,31.85
2019-03-31T00:28:54.347Z,32.70
2019-03-31T00:31:27.088Z,33.18
2019-03-31T00:33:57.815Z,34.77
2019-03-31T00:36:28.376Z,35.80
2019-03-31T00:38:59.191Z,33.13
2019-03-31T00:41:30.372Z,34.45
2019-03-31T00:44:00.979Z,35.68
2019-03-31T00:46:32.206Z,36.30
2019-03-31T00:49:02.939Z,37.05
2019-03-31T00:51:33.915Z,36.98
2019-03-31T00:54:04.830Z,34.63
2019-03-31T00:56:35.314Z,34.60
2019-03-31T00:59:06.080Z,34.48
2019-03-31T01:01:38.940Z,33.63
2019-03-31T01:04:10.116Z,34.03
2019-03-31T01:06:40.975Z,34.67
2019-03-31T01:09:15.895Z,33.90
2019-03-31T01:11:46.747Z,31.40
2019-03-31T01:14:17.573Z,33.53
2019-03-31T01:16:48.450Z,35.23
2019-03-31T01:19:19.070Z,31.45
2019-03-31T01:21:49.750Z,34.75
2019-03-31T01:24:21.083Z,32.40
2019-03-31T01:26:51.735Z,35.05
2019-03-31T01:29:22.502Z,33.48
2019-03-31T01:31:54.429Z,34.67
2019-03-31T01:34:25.184Z,32.73
2019-03-31T01:36:55.901Z,33.92
2019-03-31T01:39:28.600Z,32.78
2019-03-31T01:41:59.269Z,31.62
2019-03-31T01:44:29.847Z,30.25
2019-03-31T01:47:00.725Z,30.25
2019-03-31T01:49:31.350Z,29.02
2019-03-31T01:52:01.876Z,28.52
2019-03-31T01:54:32.963Z,28.50
2019-03-31T01:57:03.637Z,30.50
2019-03-31T01:59:34.421Z,28.65
2019-03-31T02:02:05.520Z,30.65
2019-03-31T02:04:36.039Z,31.87
2019-03-31T02:07:07.706Z,30.92
2019-03-31T02:09:38.718Z,30.70
2019-03-31T02:12:09.458Z,29.85
2019-03-31T02:14:40.333Z,30.12
2019-03-31T02:17:11.093Z,30.72
2019-03-31T02:19:41.763Z,29.05
2019-03-31T02:22:12.077Z,29.23
2019-03-31T02:24:43.278Z,28.73
2019-03-31T02:27:14.161Z,29.02
2019-03-31T02:29:44.834Z,27.50
2019-03-31T02:32:24.102Z,26.42
2019-03-31T02:34:47.828Z,26.37
2019-03-31T02:37:18.599Z,27.80
2019-03-31T02:39:49.577Z,26.40
2019-03-31T02:42:23.286Z,27.55
2019-03-31T02:44:55.162Z,24.18
2019-03-31T02:47:25.658Z,26.93
2019-03-31T02:49:56.428Z,26.73
2019-03-31T02:52:27.318Z,26.68
2019-03-31T02:54:58.045Z,25.97
2019-03-31T02:57:28.793Z,24.27
2019-03-31T02:59:59.775Z,28.90
2019-03-31T03:02:41.329Z,25.17
2019-03-31T03:05:17.878Z,26.17
2019-03-31T03:07:36.779Z,29.70
2019-03-31T03:10:07.527Z,25.27
2019-03-31T03:12:40.027Z,25.97
2019-03-31T03:15:13.882Z,25.70
2019-03-31T03:17:44.649Z,26.42
2019-03-31T03:20:15.431Z,26.75
2019-03-31T03:22:46.275Z,28.20
2019-03-31T03:25:16.908Z,26.02
2019-03-31T03:27:47.881Z,27.77
2019-03-31T03:30:18.494Z,28.30
2019-03-31T03:33:13.331Z,25.30
2019-03-31T03:35:21.352Z,25.95
2019-03-31T03:37:52.292Z,27.25
2019-03-31T03:40:23.130Z,26.85
2019-03-31T03:42:53.836Z,28.52
2019-03-31T03:45:24.750Z,24.85
2019-03-31T03:47:55.437Z,29.50
2019-03-31T03:50:26.419Z,26.93
2019-03-31T03:52:57.056Z,27.37
2019-03-31T03:55:27.684Z,28.40
2019-03-31T03:57:58.607Z,26.17
2019-03-31T04:00:29.314Z,25.45
2019-03-31T04:02:59.993Z,27.07
2019-03-31T04:05:30.902Z,25.35
2019-03-31T04:08:01.764Z,25.08
2019-03-31T04:10:35.244Z,25.60
2019-03-31T04:13:06.319Z,24.65
2019-03-31T04:15:37.167Z,26.15
2019-03-31T04:18:07.869Z,24.27
2019-03-31T04:20:39.405Z,26.55
2019-03-31T04:23:10.405Z,24.70
2019-03-31T04:25:40.994Z,25.30
2019-03-31T04:28:11.915Z,26.30
2019-03-31T04:30:42.553Z,26.25
2019-03-31T04:33:13.121Z,26.02
2019-03-31T04:35:44.116Z,26.42
2019-03-31T04:38:14.733Z,26.95
2019-03-31T04:40:45.367Z,29.00
2019-03-31T04:43:16.493Z,28.25
2019-03-31T04:45:47.287Z,26.85
2019-03-31T04:48:18.254Z,27.50
2019-03-31T04:50:51.931Z,27.20
2019-03-31T04:53:21.099Z,27.03
2019-03-31T04:55:51.983Z,26.68
2019-03-31T04:58:23.051Z,27.75
2019-03-31T05:00:53.740Z,27.10
2019-03-31T05:03:24.310Z,26.50
2019-03-31T05:05:55.632Z,26.33
2019-03-31T05:08:26.284Z,26.02
2019-03-31T05:10:57.059Z,26.07
2019-03-31T05:13:27.747Z,26.75
2019-03-31T05:15:58.396Z,27.05
2019-03-31T05:18:29.382Z,26.68
2019-03-31T05:21:00.287Z,30.08
2019-03-31T05:23:31.052Z,27.55
2019-03-31T05:26:01.803Z,27.75
2019-03-31T05:28:32.484Z,25.68
2019-03-31T05:31:03.160Z,25.65
2019-03-31T05:33:33.976Z,26.33
2019-03-31T05:36:04.743Z,25.80
2019-03-31T05:38:35.425Z,25.30
2019-03-31T05:41:06.256Z,25.52
2019-03-31T05:43:36.920Z,25.97
2019-03-31T05:46:07.653Z,25.60
2019-03-31T05:48:38.623Z,26.17
2019-03-31T05:51:09.193Z,25.52
2019-03-31T05:53:39.975Z,25.85
2019-03-31T05:56:10.839Z,25.00
2019-03-31T05:58:41.697Z,26.60
2019-03-31T06:01:12.534Z,23.52
2019-03-31T06:03:43.435Z,21.87
2019-03-31T06:06:14.241Z,22.07
2019-03-31T06:08:45.193Z,22.80
2019-03-31T06:11:15.661Z,22.42
2019-03-31T06:13:46.515Z,29.70
2019-03-31T06:16:17.446Z,24.50
2019-03-31T06:18:47.963Z,24.70
2019-03-31T06:21:18.662Z,24.45
2019-03-31T06:23:49.393Z,22.48
2019-03-31T06:26:19.974Z,23.47
2019-03-31T06:28:50.643Z,25.88
2019-03-31T06:31:21.607Z,24.65
2019-03-31T06:33:52.245Z,25.08
2019-03-31T06:36:22.940Z,25.05
2019-03-31T06:38:53.742Z,24.00
2019-03-31T06:41:24.424Z,22.80
2019-03-31T06:43:54.946Z,25.27
2019-03-31T06:46:26.004Z,22.82
2019-03-31T06:48:56.756Z,24.47
2019-03-31T06:51:27.247Z,22.32
2019-03-31T06:53:57.997Z,22.50
2019-03-31T06:56:28.726Z,23.20
2019-03-31T06:58:59.479Z,23.52
2019-03-31T07:01:30.273Z,24.02
2019-03-31T07:04:00.999Z,23.00
2019-03-31T07:06:31.733Z,23.60
2019-03-31T07:09:02.935Z,22.75
2019-03-31T07:11:33.481Z,20.80
2019-03-31T07:14:04.120Z,22.65
2019-03-31T07:16:35.094Z,22.35
2019-03-31T07:19:06.471Z,21.65
2019-03-31T07:21:37.140Z,21.20
2019-03-31T07:24:07.991Z,21.55
2019-03-31T07:26:38.657Z,21.05
2019-03-31T07:29:09.458Z,20.85
2019-03-31T07:31:40.528Z,21.45
2019-03-31T07:34:11.444Z,23.52
2019-03-31T07:36:42.324Z,23.07
2019-03-31T07:39:14.103Z,22.00
2019-03-31T07:41:45.470Z,21.57
2019-03-31T07:44:16.264Z,20.80
2019-03-31T07:46:47.299Z,22.32
2019-03-31T07:49:18.263Z,21.17
2019-03-31T07:51:48.917Z,21.55
2019-03-31T07:54:20.013Z,20.75
2019-03-31T07:56:50.724Z,21.10
2019-03-31T07:59:21.513Z,18.87
2019-03-31T08:01:52.372Z,20.17
2019-03-31T08:04:23.083Z,19.92
2019-03-31T08:06:53.812Z,21.15
2019-03-31T08:09:24.757Z,20.57
2019-03-31T08:11:55.561Z,21.77
2019-03-31T08:14:26.288Z,20.82
2019-03-31T08:16:57.093Z,20.52
2019-03-31T08:19:27.835Z,20.72
2019-03-31T08:21:58.475Z,20.85
2019-03-31T08:24:29.529Z,22.30
2019-03-31T08:27:00.147Z,22.90
2019-03-31T08:29:30.770Z,21.90
2019-03-31T08:32:01.476Z,22.37
2019-03-31T08:34:31.994Z,21.12
2019-03-31T08:37:02.765Z,20.40
2019-03-31T08:39:33.509Z,21.35
2019-03-31T08:42:04.391Z,22.25
2019-03-31T08:44:35.285Z,20.52
2019-03-31T08:47:06.858Z,21.80
2019-03-31T08:49:37.682Z,20.95
2019-03-31T08:52:08.455Z,20.08
2019-03-31T08:54:39.503Z,20.08
2019-03-31T08:57:09.991Z,18.50
2019-03-31T08:59:40.681Z,18.98
2019-03-31T09:02:13.750Z,19.45
2019-03-31T09:04:44.503Z,20.00
2019-03-31T09:07:15.120Z,19.30
2019-03-31T09:09:46.451Z,18.80
2019-03-31T09:12:17.560Z,19.40
2019-03-31T09:14:47.936Z,20.40
2019-03-31T09:17:18.911Z,18.12
2019-03-31T09:19:49.408Z,17.73
2019-03-31T09:22:20.048Z,16.85
2019-03-31T09:24:51.075Z,13.65
2019-03-31T09:27:21.742Z,14.07
2019-03-31T09:29:52.352Z,12.82
2019-03-31T09:32:23.225Z,13.40
2019-03-31T09:34:53.795Z,13.10
2019-03-31T09:37:24.596Z,12.82
2019-03-31T09:39:55.780Z,12.13
2019-03-31T09:42:27.287Z,14.05
2019-03-31T09:44:58.183Z,13.88
2019-03-31T09:47:29.277Z,16.55
2019-03-31T09:50:00.095Z,16.55
2019-03-31T09:52:30.610Z,18.15
2019-03-31T09:55:01.579Z,15.75
2019-03-31T09:57:32.239Z,16.55
2019-03-31T10:00:02.878Z,16.65
2019-03-31T10:02:34.049Z,17.87
2019-03-31T10:05:05.513Z,18.42
2019-03-31T10:07:36.110Z,19.23
2019-03-31T10:10:09.710Z,20.20
2019-03-31T10:12:40.611Z,22.35
2019-03-31T10:15:11.562Z,21.35
2019-03-31T10:17:42.377Z,21.02
2019-03-31T10:20:13.070Z,19.60
2019-03-31T10:22:43.758Z,20.80
2019-03-31T10:25:14.749Z,21.15
2019-03-31T10:27:45.369Z,23.10
2019-03-31T10:30:19.013Z,22.87
2019-03-31T10:32:49.792Z,22.73
2019-03-31T10:35:20.466Z,22.02
2019-03-31T10:37:51.346Z,22.32
2019-03-31T10:40:22.005Z,19.62
2019-03-31T10:42:52.659Z,20.08
2019-03-31T10:45:23.723Z,20.25
2019-03-31T10:47:54.469Z,18.48
2019-03-31T10:50:25.074Z,19.42
2019-03-31T10:52:55.930Z,18.82
2019-03-31T10:55:26.647Z,18.85
2019-03-31T10:57:57.418Z,17.62
2019-03-31T11:00:31.119Z,18.73
2019-03-31T11:03:01.895Z,19.32
2019-03-31T11:05:32.519Z,17.82
2019-03-31T11:08:03.305Z,18.90
2019-03-31T11:10:34.208Z,20.02
2019-03-31T11:13:05.079Z,18.40
2019-03-31T11:15:36.345Z,17.50
2019-03-31T11:18:07.126Z,18.73
2019-03-31T11:20:37.627Z,17.98
2019-03-31T11:23:08.441Z,16.82
2019-03-31T11:25:38.964Z,17.35
2019-03-31T11:28:09.780Z,17.48
2019-03-31T11:30:40.790Z,17.50
